createdAt,value
2023-04-17T00:01:30.928Z,99231.75
2023-04-17T00:03:58.881Z,99222.78
2023-04-17T00:06:27.544Z,99227.34
2023-04-17T00:08:55.424Z,99231.66
2023-04-17T00:11:23.200Z,99220.72
2023-04-17T00:13:50.927Z,99229.28
2023-04-17T00:16:18.911Z,99235.44
2023-04-17T00:18:46.691Z,99236.19
2023-04-17T00:21:14.611Z,99228.13
2023-04-17T00:23:42.490Z,99239.38
2023-04-17T00:26:10.225Z,99236.78
2023-04-17T00:28:40.024Z,99238.88
2023-04-17T00:31:09.669Z,99226.28
2023-04-17T00:33:37.526Z,99234.09
2023-04-17T00:36:06.272Z,99237.63
2023-04-17T00:38:34.002Z,99234.69
2023-04-17T00:41:02.875Z,99228.38
2023-04-17T00:43:30.842Z,99234.59
2023-04-17T00:45:59.783Z,99232.25
2023-04-17T00:48:27.671Z,99241.44
2023-04-17T00:51:03.513Z,99233.75
2023-04-17T00:53:35.844Z,99230.91
2023-04-17T00:56:08.004Z,99232.28
2023-04-17T00:58:38.568Z,99224.06
2023-04-17T01:01:07.341Z,99223.81
2023-04-17T01:03:35.398Z,99223.72
2023-04-17T01:06:03.997Z,99219.06
2023-04-17T01:08:42.850Z,99217.84
2023-04-17T01:11:11.909Z,99222.72
2023-04-17T01:13:50.870Z,99226.66
2023-04-17T01:16:20.349Z,99223.47
2023-04-17T01:18:51.519Z,99218.03
2023-04-17T01:21:19.334Z,99221.75
2023-04-17T01:23:53.338Z,99221.03
2023-04-17T01:26:24.385Z,99215.13
2023-04-17T01:28:58.276Z,99218.69
2023-04-17T01:31:29.077Z,99218.69
2023-04-17T01:33:56.958Z,99216.50
2023-04-17T01:36:24.750Z,99214.63
2023-04-17T01:38:52.466Z,99211.44
2023-04-17T01:41:20.243Z,99206.16
2023-04-17T01:43:48.287Z,99204.47
2023-04-17T01:46:16.190Z,99212.44
2023-04-17T01:48:44.058Z,99208.00
2023-04-17T01:51:11.856Z,99208.75
2023-04-17T01:53:40.496Z,99207.78
2023-04-17T01:56:08.594Z,99209.47
2023-04-17T01:58:36.367Z,99202.25
2023-04-17T02:01:04.598Z,99209.25
2023-04-17T02:03:34.254Z,99208.50
2023-04-17T02:06:04.038Z,99209.75
2023-04-17T02:08:34.446Z,99209.50
2023-04-17T02:11:02.466Z,99212.78
2023-04-17T02:13:32.101Z,99216.56
2023-04-17T02:15:59.896Z,99219.63
2023-04-17T02:18:28.578Z,99221.97
2023-04-17T02:20:56.365Z,99227.34
2023-04-17T02:23:24.101Z,99214.97
2023-04-17T02:25:51.927Z,99219.00
2023-04-17T02:28:21.654Z,99218.03
2023-04-17T02:30:51.194Z,99217.16
2023-04-17T02:33:19.018Z,99214.00
2023-04-17T02:35:46.840Z,99220.72
2023-04-17T02:38:14.745Z,99226.09
2023-04-17T02:40:46.422Z,99202.22
2023-04-17T02:43:16.107Z,99216.56
2023-04-17T02:45:43.847Z,99225.00
2023-04-17T02:48:11.579Z,99219.97
2023-04-17T02:50:41.155Z,99221.22
2023-04-17T02:53:09.695Z,99217.50
2023-04-17T02:55:39.261Z,99219.47
2023-04-17T02:58:08.935Z,99224.63
2023-04-17T03:00:36.703Z,99216.41
2023-04-17T03:03:05.076Z,99225.84
2023-04-17T03:05:33.851Z,99216.75
2023-04-17T03:08:03.647Z,99229.13
2023-04-17T03:10:33.257Z,99222.91
2023-04-17T03:13:01.109Z,99223.13
2023-04-17T03:15:28.865Z,99221.19
2023-04-17T03:17:58.564Z,99220.44
2023-04-17T03:20:28.174Z,99223.13
2023-04-17T03:22:57.830Z,99222.72
2023-04-17T03:25:27.505Z,99221.19
2023-04-17T03:27:57.225Z,99224.97
2023-04-17T03:30:26.524Z,99225.34
2023-04-17T03:32:54.346Z,99223.47
2023-04-17T03:35:22.891Z,99223.66
2023-04-17T03:37:50.780Z,99222.28
2023-04-17T03:40:19.559Z,99230.38
2023-04-17T03:42:47.371Z,99236.81
2023-04-17T03:45:17.121Z,99238.03
2023-04-17T03:47:45.291Z,99236.09
2023-04-17T03:50:13.275Z,99234.72
2023-04-17T03:52:41.317Z,99246.25
2023-04-17T03:55:10.136Z,99247.09
2023-04-17T03:57:39.650Z,99241.44
2023-04-17T04:00:10.875Z,99246.06
2023-04-17T04:02:39.024Z,99245.59
2023-04-17T04:05:09.130Z,99243.56
2023-04-17T04:07:37.823Z,99244.13
2023-04-17T04:10:08.589Z,99247.09
2023-04-17T04:12:37.284Z,99252.00
2023-04-17T04:15:07.256Z,99249.16
2023-04-17T04:17:35.094Z,99240.44
2023-04-17T04:20:03.039Z,99253.47
2023-04-17T04:22:30.941Z,99251.22
2023-04-17T04:24:59.536Z,99251.22
2023-04-17T04:27:27.947Z,99262.97
2023-04-17T04:29:59.093Z,99261.97
2023-04-17T04:32:28.384Z,99267.09
2023-04-17T04:34:58.776Z,99266.09
2023-04-17T04:37:30.337Z,99265.00
2023-04-17T04:40:02.859Z,99268.16
2023-04-17T04:42:31.631Z,99266.69
2023-04-17T04:44:59.453Z,99273.88
2023-04-17T04:47:27.545Z,99277.44
2023-04-17T04:49:55.856Z,99269.88
2023-04-17T04:52:24.557Z,99274.81
2023-04-17T04:54:54.422Z,99275.66
2023-04-17T04:57:22.181Z,99282.25
2023-04-17T04:59:49.987Z,99283.88
2023-04-17T05:02:17.976Z,99286.66
2023-04-17T05:04:46.139Z,99290.94
2023-04-17T05:07:14.174Z,99282.53
2023-04-17T05:09:43.690Z,99292.66
2023-04-17T05:12:12.205Z,99291.06
2023-04-17T05:14:40.828Z,99289.59
2023-04-17T05:17:09.501Z,99299.94
2023-04-17T05:19:37.303Z,99295.16
2023-04-17T05:22:05.197Z,99296.91
2023-04-17T05:24:32.988Z,99309.03
2023-04-17T05:27:02.324Z,99308.97
2023-04-17T05:29:32.979Z,99304.44
2023-04-17T05:32:01.729Z,99294.13
2023-04-17T05:34:29.630Z,99305.84
2023-04-17T05:36:57.530Z,99308.50
2023-04-17T05:39:25.341Z,99305.94
2023-04-17T05:41:53.945Z,99311.69
2023-04-17T05:44:22.477Z,99304.34
2023-04-17T05:46:50.257Z,99309.53
2023-04-17T05:49:18.058Z,99320.97
2023-04-17T05:51:46.843Z,99319.69
2023-04-17T05:54:16.428Z,99316.50
2023-04-17T05:56:44.371Z,99323.00
2023-04-17T05:59:12.998Z,99317.31
2023-04-17T06:01:41.793Z,99315.63
2023-04-17T06:04:11.799Z,99322.94
2023-04-17T06:06:40.680Z,99318.25
2023-04-17T06:09:10.019Z,99325.56
2023-04-17T06:11:38.765Z,99325.72
2023-04-17T06:14:08.370Z,99328.94
2023-04-17T06:16:36.982Z,99329.56
2023-04-17T06:19:05.766Z,99327.22
2023-04-17T06:21:34.293Z,99328.09
2023-04-17T06:24:02.927Z,99336.53
2023-04-17T06:26:32.514Z,99328.63
2023-04-17T06:29:01.491Z,99335.75
2023-04-17T06:31:29.414Z,99339.03
2023-04-17T06:33:58.229Z,99339.09
2023-04-17T06:36:26.391Z,99345.41
2023-04-17T06:38:54.247Z,99342.25
2023-04-17T06:41:22.774Z,99345.03
2023-04-17T06:43:50.561Z,99348.59
2023-04-17T06:46:21.481Z,99352.44
2023-04-17T06:48:52.538Z,99349.94
2023-04-17T06:51:22.046Z,99348.50
2023-04-17T06:53:49.835Z,99355.19
2023-04-17T06:56:19.780Z,99361.13
2023-04-17T06:58:48.376Z,99367.97
2023-04-17T07:01:16.352Z,99364.88
2023-04-17T07:03:44.720Z,99367.25
2023-04-17T07:06:12.796Z,99367.59
2023-04-17T07:08:42.491Z,99375.78
2023-04-17T07:11:12.094Z,99371.72
2023-04-17T07:13:40.658Z,99372.41
2023-04-17T07:16:09.286Z,99370.94
2023-04-17T07:18:37.953Z,99372.19
2023-04-17T07:21:07.555Z,99372.75
2023-04-17T07:23:38.818Z,99377.00
2023-04-17T07:26:07.594Z,99375.72
2023-04-17T07:28:37.554Z,99377.16
2023-04-17T07:31:08.965Z,99375.78
2023-04-17T07:33:40.405Z,99379.88
2023-04-17T07:36:12.053Z,99379.06
2023-04-17T07:38:41.397Z,99383.31
2023-04-17T07:41:09.317Z,99387.41
2023-04-17T07:43:37.070Z,99389.56
2023-04-17T07:46:05.149Z,99390.69
2023-04-17T07:48:32.953Z,99391.91
2023-04-17T07:51:01.748Z,99388.28
2023-04-17T07:53:31.298Z,99400.72
2023-04-17T07:56:01.002Z,99388.09
2023-04-17T07:58:28.870Z,99403.41
2023-04-17T08:00:58.044Z,99396.06
2023-04-17T08:03:26.129Z,99392.13
2023-04-17T08:05:54.395Z,99397.16
2023-04-17T08:08:24.736Z,99400.69
2023-04-17T08:10:54.363Z,99391.47
2023-04-17T08:13:26.345Z,99401.47
2023-04-17T08:15:54.866Z,99403.88
2023-04-17T08:18:22.700Z,99399.38
2023-04-17T08:20:50.416Z,99397.75
2023-04-17T08:23:22.940Z,99392.59
2023-04-17T08:25:50.886Z,99402.25
2023-04-17T08:28:18.673Z,99398.13
2023-04-17T08:30:46.653Z,99399.53
2023-04-17T08:33:17.146Z,99401.78
2023-04-17T08:35:45.908Z,99395.94
2023-04-17T08:38:17.181Z,99403.25
2023-04-17T08:40:52.306Z,99399.53
2023-04-17T08:43:21.387Z,99403.50
2023-04-17T08:45:54.312Z,99405.97
2023-04-17T08:48:24.609Z,99407.56
2023-04-17T08:50:55.229Z,99406.91
2023-04-17T08:53:24.764Z,99397.91
2023-04-17T08:55:52.514Z,99396.53
2023-04-17T08:58:28.472Z,99395.94
2023-04-17T09:01:13.009Z,99399.09
2023-04-17T09:03:49.920Z,99406.75
2023-04-17T09:06:18.137Z,99408.66
2023-04-17T09:09:04.189Z,99400.28
2023-04-17T09:11:31.988Z,99395.94
2023-04-17T09:14:02.471Z,99399.66
2023-04-17T09:16:30.469Z,99403.38
2023-04-17T09:19:08.098Z,99395.78
2023-04-17T09:21:37.578Z,99400.22
2023-04-17T09:24:07.808Z,99397.91
2023-04-17T09:26:36.066Z,99409.88
2023-04-17T09:29:14.117Z,99401.53
2023-04-17T09:31:44.700Z,99395.00
2023-04-17T09:34:16.723Z,99398.16
2023-04-17T09:36:45.413Z,99399.56
2023-04-17T09:39:24.704Z,99400.00
2023-04-17T09:42:06.498Z,99398.63
2023-04-17T09:44:38.163Z,99398.66
2023-04-17T09:47:08.402Z,99390.94
2023-04-17T09:49:53.691Z,99389.50
2023-04-17T09:52:24.329Z,99393.25
2023-04-17T09:54:54.044Z,99390.34
2023-04-17T09:57:23.799Z,99390.03
2023-04-17T09:59:52.641Z,99389.63
2023-04-17T10:02:23.016Z,99385.94
2023-04-17T10:04:51.617Z,99394.44
2023-04-17T10:07:19.341Z,99389.22
2023-04-17T10:09:48.042Z,99393.03
2023-04-17T10:12:19.670Z,99386.94
2023-04-17T10:14:52.562Z,99388.09
2023-04-17T10:17:33.389Z,99389.31
2023-04-17T10:20:20.312Z,99393.59
2023-04-17T10:22:56.480Z,99391.88
2023-04-17T10:25:29.269Z,99380.97
2023-04-17T10:28:03.595Z,99379.97
2023-04-17T10:30:55.187Z,99387.41
2023-04-17T10:33:28.174Z,99393.34
2023-04-17T10:35:56.338Z,99381.00
2023-04-17T10:38:36.128Z,99379.66
2023-04-17T10:41:12.197Z,99375.81
2023-04-17T10:43:45.697Z,99382.56
2023-04-17T10:46:15.919Z,99375.06
2023-04-17T10:48:56.595Z,99380.81
2023-04-17T10:51:24.682Z,99378.81
2023-04-17T10:54:05.674Z,99383.09
2023-04-17T10:56:40.348Z,99379.06
2023-04-17T10:59:17.424Z,99372.50
2023-04-17T11:01:48.677Z,99367.44
2023-04-17T11:04:31.154Z,99375.13
2023-04-17T11:06:59.652Z,99375.50
2023-04-17T11:09:29.846Z,99372.84
2023-04-17T11:12:03.104Z,99369.41
2023-04-17T11:14:32.527Z,99373.63
2023-04-17T11:17:02.466Z,99376.22
2023-04-17T11:19:32.421Z,99380.91
2023-04-17T11:22:02.856Z,99369.59
2023-04-17T11:24:34.993Z,99371.63
2023-04-17T11:27:04.058Z,99371.06
2023-04-17T11:29:33.636Z,99368.22
2023-04-17T11:32:03.765Z,99367.66
2023-04-17T11:34:31.665Z,99368.78
2023-04-17T11:37:01.591Z,99363.38
2023-04-17T11:39:34.653Z,99374.38
2023-04-17T11:42:05.446Z,99363.09
2023-04-17T11:44:35.445Z,99360.00
2023-04-17T11:47:04.183Z,99358.72
2023-04-17T11:49:39.081Z,99355.69
2023-04-17T11:52:07.431Z,99359.69
2023-04-17T11:54:39.663Z,99363.13
2023-04-17T11:57:14.624Z,99365.56
2023-04-17T11:59:45.696Z,99362.28
2023-04-17T12:02:15.442Z,99358.56
2023-04-17T12:04:43.486Z,99359.41
2023-04-17T12:07:26.366Z,99366.22
2023-04-17T12:09:58.422Z,99363.38
2023-04-17T12:12:26.192Z,99364.66
2023-04-17T12:14:54.847Z,99363.09
2023-04-17T12:17:24.419Z,99364.25
2023-04-17T12:19:52.691Z,99368.69
2023-04-17T12:22:22.314Z,99358.25
2023-04-17T12:24:50.103Z,99355.38
2023-04-17T12:27:18.033Z,99350.28
2023-04-17T12:29:45.823Z,99353.72
2023-04-17T12:32:13.722Z,99356.28
2023-04-17T12:34:41.548Z,99351.41
2023-04-17T12:37:11.812Z,99358.84
2023-04-17T12:39:41.528Z,99354.22
2023-04-17T12:42:10.270Z,99349.28
2023-04-17T12:44:39.843Z,99347.44
2023-04-17T12:47:08.507Z,99348.72
2023-04-17T12:49:37.219Z,99348.66
2023-04-17T12:52:06.787Z,99347.69
2023-04-17T12:54:35.434Z,99347.97
2023-04-17T12:57:06.837Z,99345.41
2023-04-17T12:59:36.354Z,99335.13
2023-04-17T13:02:04.226Z,99333.38
2023-04-17T13:04:32.299Z,99338.53
2023-04-17T13:07:00.948Z,99333.38
2023-04-17T13:09:29.492Z,99334.06
2023-04-17T13:11:58.070Z,99335.41
2023-04-17T13:14:26.115Z,99329.84
2023-04-17T13:16:54.224Z,99334.13
2023-04-17T13:19:24.284Z,99323.28
2023-04-17T13:21:53.897Z,99319.13
2023-04-17T13:24:22.509Z,99319.69
2023-04-17T13:26:51.128Z,99328.56
2023-04-17T13:29:21.031Z,99311.72
2023-04-17T13:31:50.934Z,99311.44
2023-04-17T13:34:20.726Z,99313.31
2023-04-17T13:36:50.461Z,99307.00
2023-04-17T13:39:20.459Z,99310.56
2023-04-17T13:41:48.654Z,99310.03
2023-04-17T13:44:17.752Z,99305.88
2023-04-17T13:46:46.482Z,99315.94
2023-04-17T13:49:16.234Z,99308.28
2023-04-17T13:51:45.817Z,99305.06
2023-04-17T13:54:15.440Z,99311.59
2023-04-17T13:56:46.155Z,99310.66
2023-04-17T13:59:16.222Z,99307.56
2023-04-17T14:01:44.006Z,99304.75
2023-04-17T14:04:12.131Z,99298.69
2023-04-17T14:06:43.949Z,99298.13
2023-04-17T14:09:12.427Z,99299.25
2023-04-17T14:11:41.344Z,99294.94
2023-04-17T14:14:10.520Z,99292.81
2023-04-17T14:16:42.558Z,99298.28
2023-04-17T14:19:14.157Z,99296.38
2023-04-17T14:21:45.874Z,99294.28
2023-04-17T14:24:13.644Z,99287.25
2023-04-17T14:26:42.283Z,99286.34
2023-04-17T14:29:14.250Z,99290.72
2023-04-17T14:31:42.426Z,99289.34
2023-04-17T14:34:10.222Z,99280.16
2023-04-17T14:36:38.093Z,99274.72
2023-04-17T14:39:07.258Z,99276.94
2023-04-17T14:41:36.122Z,99276.31
2023-04-17T14:44:06.810Z,99274.81
2023-04-17T14:46:35.654Z,99281.69
2023-04-17T14:49:05.461Z,99271.78
2023-04-17T14:51:34.003Z,99275.41
2023-04-17T14:54:02.588Z,99275.84
2023-04-17T14:56:30.637Z,99277.81
2023-04-17T14:58:59.268Z,99272.94
2023-04-17T15:01:27.873Z,99274.03
2023-04-17T15:03:56.936Z,99267.34
2023-04-17T15:06:26.356Z,99274.78
2023-04-17T15:08:54.181Z,99273.69
2023-04-17T15:11:22.909Z,99276.44
2023-04-17T15:13:50.787Z,99269.22
2023-04-17T15:16:20.461Z,99265.03
2023-04-17T15:18:51.391Z,99274.66
2023-04-17T15:21:20.056Z,99265.25
2023-04-17T15:23:47.867Z,99271.50
2023-04-17T15:26:18.444Z,99267.50
2023-04-17T15:28:46.447Z,99266.53
2023-04-17T15:31:14.208Z,99262.53
2023-04-17T15:33:47.582Z,99264.78
2023-04-17T15:36:16.800Z,99257.25
2023-04-17T15:38:46.365Z,99261.75
2023-04-17T15:41:14.306Z,99257.44
2023-04-17T15:43:43.838Z,99259.16
2023-04-17T15:46:11.861Z,99259.31
2023-04-17T15:48:39.693Z,99259.16
2023-04-17T15:51:07.608Z,99266.91
2023-04-17T15:53:35.537Z,99274.47
2023-04-17T15:56:03.369Z,99268.34
2023-04-17T15:58:31.189Z,99264.38
2023-04-17T16:01:00.741Z,99265.50
2023-04-17T16:03:30.328Z,99264.50
2023-04-17T16:05:58.933Z,99273.09
2023-04-17T16:08:28.520Z,99259.78
2023-04-17T16:10:58.086Z,99266.94
2023-04-17T16:13:26.643Z,99272.63
2023-04-17T16:15:54.511Z,99262.94
2023-04-17T16:18:25.023Z,99263.19
2023-04-17T16:20:53.591Z,99275.19
2023-04-17T16:23:22.354Z,99275.06
2023-04-17T16:25:51.503Z,99269.75
2023-04-17T16:28:20.156Z,99269.50
2023-04-17T16:30:49.672Z,99269.19
2023-04-17T16:33:18.427Z,99270.06
2023-04-17T16:35:47.106Z,99267.50
2023-04-17T16:38:15.832Z,99264.50
2023-04-17T16:40:44.537Z,99272.34
2023-04-17T16:43:14.043Z,99272.06
2023-04-17T16:45:42.780Z,99266.78
2023-04-17T16:48:11.651Z,99274.06
2023-04-17T16:50:41.175Z,99278.91
2023-04-17T16:53:09.517Z,99275.91
2023-04-17T16:55:38.321Z,99277.63
2023-04-17T16:58:07.829Z,99280.75
2023-04-17T17:00:36.926Z,99275.47
2023-04-17T17:03:05.763Z,99276.19
2023-04-17T17:05:34.552Z,99275.63
2023-04-17T17:08:03.363Z,99272.06
2023-04-17T17:10:33.707Z,99271.19
2023-04-17T17:13:02.457Z,99270.03
2023-04-17T17:15:31.213Z,99266.88
2023-04-17T17:18:00.801Z,99268.84
2023-04-17T17:20:29.491Z,99271.41
2023-04-17T17:22:58.258Z,99269.25
2023-04-17T17:25:26.925Z,99275.03
2023-04-17T17:27:55.703Z,99271.22
2023-04-17T17:30:24.637Z,99281.91
2023-04-17T17:32:53.504Z,99282.16
2023-04-17T17:35:22.925Z,99282.28
2023-04-17T17:37:52.734Z,99279.91
2023-04-17T17:40:21.351Z,99282.91
2023-04-17T17:42:50.009Z,99282.53
2023-04-17T17:45:19.172Z,99281.81
2023-04-17T17:47:47.799Z,99284.97
2023-04-17T17:50:15.635Z,99278.53
2023-04-17T17:52:44.168Z,99276.97
2023-04-17T17:55:16.460Z,99288.63
2023-04-17T17:57:49.768Z,99291.44
2023-04-17T18:00:19.385Z,99278.88
2023-04-17T18:02:48.208Z,99292.56
2023-04-17T18:05:17.888Z,99290.25
2023-04-17T18:07:46.571Z,99293.97
2023-04-17T18:10:15.384Z,99289.22
2023-04-17T18:12:45.091Z,99301.91
2023-04-17T18:15:13.856Z,99308.63
2023-04-17T18:17:41.683Z,99297.63
2023-04-17T18:20:10.556Z,99309.84
2023-04-17T18:22:39.272Z,99310.31
2023-04-17T18:25:08.819Z,99311.44
2023-04-17T18:27:37.004Z,99307.72
2023-04-17T18:30:10.065Z,99313.13
2023-04-17T18:32:38.831Z,99318.72
2023-04-17T18:35:08.437Z,99317.94
2023-04-17T18:37:37.836Z,99320.09
2023-04-17T18:40:10.667Z,99316.94
2023-04-17T18:42:39.341Z,99317.53
2023-04-17T18:45:13.835Z,99327.75
2023-04-17T18:47:42.684Z,99321.41
2023-04-17T18:50:12.094Z,99324.25
2023-04-17T18:52:46.803Z,99325.38
2023-04-17T18:55:18.414Z,99322.41
2023-04-17T18:57:47.068Z,99318.22
2023-04-17T19:00:18.696Z,99323.78
2023-04-17T19:02:47.970Z,99335.94
2023-04-17T19:05:16.118Z,99320.75
2023-04-17T19:07:44.775Z,99326.63
2023-04-17T19:10:12.576Z,99330.06
2023-04-17T19:12:42.666Z,99328.84
2023-04-17T19:15:12.454Z,99329.22
2023-04-17T19:17:41.258Z,99330.94
2023-04-17T19:20:10.968Z,99332.28
2023-04-17T19:22:38.905Z,99334.41
2023-04-17T19:25:08.274Z,99337.00
2023-04-17T19:27:36.233Z,99335.50
2023-04-17T19:30:07.887Z,99330.53
2023-04-17T19:32:36.593Z,99331.25
2023-04-17T19:35:06.195Z,99325.84
2023-04-17T19:37:34.102Z,99332.22
2023-04-17T19:40:08.621Z,99333.47
2023-04-17T19:42:39.232Z,99337.66
2023-04-17T19:45:09.118Z,99333.31
2023-04-17T19:47:41.051Z,99338.38
2023-04-17T19:50:11.018Z,99335.56
2023-04-17T19:52:39.000Z,99335.81
2023-04-17T19:55:09.535Z,99330.28
2023-04-17T19:57:39.395Z,99331.63
2023-04-17T20:00:10.244Z,99332.84
2023-04-17T20:02:38.562Z,99332.88
2023-04-17T20:05:07.372Z,99328.19
2023-04-17T20:07:35.483Z,99335.31
2023-04-17T20:10:03.674Z,99337.31
2023-04-17T20:12:33.250Z,99333.38
2023-04-17T20:15:01.060Z,99333.63
2023-04-17T20:17:28.894Z,99338.91
2023-04-17T20:19:56.781Z,99340.84
2023-04-17T20:22:24.511Z,99336.56
2023-04-17T20:24:54.016Z,99352.03
2023-04-17T20:27:21.831Z,99355.34
2023-04-17T20:29:49.569Z,99347.47
2023-04-17T20:32:20.497Z,99342.31
2023-04-17T20:34:48.258Z,99353.00
2023-04-17T20:37:16.073Z,99340.03
2023-04-17T20:39:45.685Z,99343.81
2023-04-17T20:42:13.475Z,99354.72
2023-04-17T20:44:41.241Z,99358.88
2023-04-17T20:47:11.106Z,99348.69
2023-04-17T20:49:38.905Z,99348.31
2023-04-17T20:52:07.577Z,99349.78
2023-04-17T20:54:36.306Z,99354.94
2023-04-17T20:57:05.883Z,99350.81
2023-04-17T20:59:33.707Z,99358.84
2023-04-17T21:02:01.494Z,99357.47
2023-04-17T21:04:29.410Z,99359.50
2023-04-17T21:06:57.275Z,99362.69
2023-04-17T21:09:26.506Z,99358.03
2023-04-17T21:11:55.631Z,99365.63
2023-04-17T21:14:23.703Z,99361.78
2023-04-17T21:16:54.589Z,99366.06
2023-04-17T21:19:24.398Z,99365.78
2023-04-17T21:21:53.212Z,99361.22
2023-04-17T21:24:21.884Z,99366.38
2023-04-17T21:26:49.640Z,99350.22
2023-04-17T21:29:17.672Z,99348.91
2023-04-17T21:31:45.605Z,99358.59
2023-04-17T21:34:13.595Z,99363.34
2023-04-17T21:36:41.745Z,99359.97
2023-04-17T21:39:09.883Z,99357.72
2023-04-17T21:41:38.875Z,99364.31
2023-04-17T21:44:06.760Z,99361.22
2023-04-17T21:46:37.849Z,99365.28
2023-04-17T21:49:06.600Z,99362.06
2023-04-17T21:51:35.330Z,99359.19
2023-04-17T21:54:04.456Z,99362.06
2023-04-17T21:56:33.249Z,99369.94
2023-04-17T21:59:01.241Z,99373.56
2023-04-17T22:01:31.124Z,99372.72
2023-04-17T22:03:58.891Z,99363.13
2023-04-17T22:06:27.767Z,99366.06
2023-04-17T22:08:58.274Z,99374.03
2023-04-17T22:11:27.775Z,99370.63
2023-04-17T22:13:55.541Z,99370.16
2023-04-17T22:16:23.382Z,99366.88
2023-04-17T22:18:51.273Z,99367.63
2023-04-17T22:21:19.097Z,99366.09
2023-04-17T22:23:48.689Z,99365.53
2023-04-17T22:26:16.447Z,99367.00
2023-04-17T22:28:44.294Z,99366.81
2023-04-17T22:31:15.875Z,99368.75
2023-04-17T22:33:44.489Z,99359.84
2023-04-17T22:36:14.284Z,99360.81
2023-04-17T22:38:42.125Z,99364.06
2023-04-17T22:41:10.208Z,99359.56
2023-04-17T22:43:38.037Z,99364.13
2023-04-17T22:46:06.654Z,99369.81
2023-04-17T22:48:35.433Z,99369.81
2023-04-17T22:51:04.362Z,99367.88
2023-04-17T22:53:33.482Z,99361.59
2023-04-17T22:56:03.902Z,99362.38
2023-04-17T22:58:34.111Z,99365.38
2023-04-17T23:01:03.931Z,99369.28
2023-04-17T23:03:31.832Z,99359.91
2023-04-17T23:05:59.627Z,99374.81
2023-04-17T23:08:31.270Z,99367.13
2023-04-17T23:11:04.774Z,99369.94
2023-04-17T23:13:34.273Z,99369.69
2023-04-17T23:16:03.061Z,99365.41
2023-04-17T23:18:32.233Z,99365.84
2023-04-17T23:21:00.120Z,99365.53
2023-04-17T23:23:28.687Z,99362.84
2023-04-17T23:25:56.493Z,99368.63
2023-04-17T23:28:30.531Z,99364.22
2023-04-17T23:31:03.525Z,99358.44
2023-04-17T23:33:31.882Z,99362.81
2023-04-17T23:36:00.001Z,99360.47
2023-04-17T23:38:27.777Z,99356.94
2023-04-17T23:40:55.775Z,99355.09
2023-04-17T23:43:24.442Z,99355.19
2023-04-17T23:45:54.054Z,99351.63
2023-04-17T23:48:21.955Z,99352.69
2023-04-17T23:50:49.851Z,99360.44
2023-04-17T23:53:17.674Z,99354.00
2023-04-17T23:55:45.587Z,99356.03
2023-04-17T23:58:13.333Z,99355.69
